Time;durP1;ratioP1;P1;durP2;ratioP2;P2;SDS_P1;SDS_P2;PMS_P1;PMS_P2;Temp;Humidity;BMP_temperature;BMP_pressure;BME280_temperature;BME280_humidity;BME280_pressure;Samples;Min_cycle;Max_cycle;Signal;HPM_P1;HPM_P2
2022/11/03 00:01:36;;;;;;;14.27;7.07;;;15.10;99.90;;;;;;5054815;28;20024;-74
2022/11/03 00:04:03;;;;;;;11.48;7.88;;;15.10;99.90;;;;;;5055382;28;20904;-74
2022/11/03 00:06:28;;;;;;;14.25;8.63;;;15.10;99.90;;;;;;5073108;28;20055;-73
2022/11/03 00:08:58;;;;;;;13.13;7.78;;;15.20;99.90;;;;;;5055167;28;20524;-73
2022/11/03 00:11:24;;;;;;;14.52;7.60;;;15.10;99.90;;;;;;5073159;28;20033;-74
2022/11/03 00:13:50;;;;;;;10.60;6.90;;;15.10;99.90;;;;;;5055164;28;20111;-73
2022/11/03 00:16:15;;;;;;;10.35;7.10;;;15.10;99.90;;;;;;5073055;28;20027;-73
2022/11/03 00:18:41;;;;;;;9.85;6.90;;;15.10;99.90;;;;;;5054815;28;20020;-73
2022/11/03 00:21:09;;;;;;;10.40;7.28;;;15.10;99.90;;;;;;5073132;28;20413;-74
2022/11/03 00:23:40;;;;;;;11.30;7.47;;;15.10;99.90;;;;;;5054663;28;20484;-73
2022/11/03 00:26:13;;;;;;;12.85;6.78;;;15.10;99.90;;;;;;5072898;28;20033;-73
2022/11/03 00:28:40;;;;;;;10.93;6.75;;;15.20;99.90;;;;;;5073064;28;20020;-73
2022/11/03 00:31:09;;;;;;;7.93;6.68;;;15.10;99.90;;;;;;5054639;28;20032;-74
2022/11/03 00:33:36;;;;;;;10.63;6.30;;;15.10;99.90;;;;;;5072751;28;20485;-73
2022/11/03 00:36:03;;;;;;;8.98;6.35;;;15.10;99.90;;;;;;5054779;28;20021;-73
2022/11/03 00:38:30;;;;;;;12.85;6.63;;;15.10;99.90;;;;;;5072787;28;20091;-73
2022/11/03 00:41:01;;;;;;;8.32;6.40;;;15.10;99.90;;;;;;5072429;28;20040;-74
2022/11/03 00:43:30;;;;;;;9.43;5.78;;;15.10;99.90;;;;;;5072367;28;20111;-74
2022/11/03 00:45:56;;;;;;;10.75;7.07;;;15.10;99.90;;;;;;5054592;28;20029;-73
2022/11/03 00:48:28;;;;;;;9.05;6.43;;;15.10;99.90;;;;;;5072559;28;20021;-74
2022/11/03 00:51:14;;;;;;;;;;;15.10;99.90;;;;;;5054890;28;20031;-73
2022/11/03 00:53:49;;;;;;;11.45;6.53;;;15.10;99.90;;;;;;5054687;28;19904;-73
2022/11/03 00:56:21;;;;;;;9.35;6.57;;;15.00;99.90;;;;;;5072260;28;20107;-74
2022/11/03 00:58:47;;;;;;;11.05;6.78;;;15.10;99.90;;;;;;5054313;28;20493;-73
2022/11/03 01:01:18;;;;;;;11.27;7.32;;;15.10;99.90;;;;;;5072258;28;20482;-73
2022/11/03 01:06:50;;;;;;;10.57;5.93;;;15.10;99.90;;;;;;5014735;28;20288;-74
2022/11/03 01:09:25;;;;;;;8.93;6.28;;;15.10;99.90;;;;;;5034410;28;20052;-73
2022/11/03 01:11:54;;;;;;;8.93;5.53;;;15.10;99.90;;;;;;5051835;28;20029;-73
2022/11/03 01:14:20;;;;;;;7.57;6.07;;;15.10;99.90;;;;;;5034059;28;20032;-73
2022/11/03 01:16:46;;;;;;;6.60;5.53;;;15.10;99.90;;;;;;5052075;28;20021;-73
2022/11/03 01:19:12;;;;;;;9.93;6.07;;;15.10;99.90;;;;;;5051926;28;20052;-73
2022/11/03 01:21:37;;;;;;;8.57;5.47;;;15.10;99.90;;;;;;5051948;28;20025;-73
2022/11/03 01:24:04;;;;;;;18.52;6.18;;;15.10;99.90;;;;;;5051907;28;20025;-74
2022/11/03 01:26:30;;;;;;;8.35;6.15;;;15.10;99.90;;;;;;5051525;28;20103;-73
2022/11/03 01:28:59;;;;;;;13.02;6.63;;;15.10;99.90;;;;;;5051406;28;20070;-73
2022/11/03 01:31:26;;;;;;;12.52;6.35;;;15.10;99.90;;;;;;5051720;28;20060;-73
2022/11/03 01:33:53;;;;;;;10.07;6.72;;;15.10;99.90;;;;;;5051582;28;20029;-73
2022/11/03 01:36:19;;;;;;;8.93;5.32;;;15.10;99.90;;;;;;5033217;28;20048;-73
2022/11/03 01:38:46;;;;;;;13.23;5.97;;;15.10;99.90;;;;;;5051534;28;20483;-73
2022/11/03 01:41:20;;;;;;;14.20;7.72;;;15.10;99.90;;;;;;5033866;28;20025;-73
2022/11/03 01:44:03;;;;;;;8.82;6.25;;;15.10;99.90;;;;;;5051484;28;20108;-74
2022/11/03 01:46:29;;;;;;;10.80;6.05;;;15.00;99.90;;;;;;5051625;28;20021;-73
2022/11/03 01:49:04;;;;;;;11.77;6.53;;;15.00;99.90;;;;;;5051371;28;20103;-73
2022/11/03 01:51:32;;;;;;;9.93;6.68;;;15.00;99.90;;;;;;5051587;28;20048;-73
2022/11/03 01:54:00;;;;;;;8.10;6.03;;;14.90;99.90;;;;;;5051358;28;20543;-73
2022/11/03 01:56:28;;;;;;;7.68;5.43;;;14.90;99.90;;;;;;5033339;28;20170;-74
2022/11/03 01:58:54;;;;;;;8.18;6.22;;;14.80;99.90;;;;;;5051354;28;20018;-73
2022/11/03 02:01:21;;;;;;;12.52;6.53;;;14.80;99.90;;;;;;5051650;28;20055;-73
2022/11/03 02:03:52;;;;;;;10.88;7.00;;;14.70;99.90;;;;;;5051298;28;20036;-73
2022/11/03 02:06:22;;;;;;;10.95;7.28;;;14.60;99.90;;;;;;5050981;28;20045;-73
2022/11/03 02:08:52;;;;;;;11.30;7.45;;;14.50;99.90;;;;;;5051130;28;20483;-73
2022/11/03 02:14:02;;;;;;;10.30;8.18;;;14.60;99.90;;;;;;5051173;28;20545;-74
2022/11/03 02:16:31;;;;;;;12.32;8.00;;;14.60;99.90;;;;;;5051335;28;20029;-73
2022/11/03 02:18:59;;;;;;;18.00;9.25;;;14.60;99.90;;;;;;5033518;28;20025;-73
2022/11/03 02:21:53;;;;;;;19.52;10.20;;;14.60;99.90;;;;;;5050919;28;20040;-73
2022/11/03 02:24:41;;;;;;;14.88;8.18;;;14.60;99.90;;;;;;5045087;28;20028;-74
2022/11/03 02:27:06;;;;;;;14.18;9.02;;;14.50;99.90;;;;;;5051131;28;20025;-74
2022/11/03 02:29:32;;;;;;;14.35;9.00;;;14.40;99.90;;;;;;5051156;28;20036;-73
2022/11/03 02:32:06;;;;;;;14.80;9.63;;;14.30;99.90;;;;;;5050868;28;20091;-74
2022/11/03 02:34:40;;;;;;;17.20;8.80;;;14.20;99.90;;;;;;5051155;28;20375;-73
2022/11/03 02:37:20;;;;;;;13.05;8.57;;;14.30;99.90;;;;;;5051242;28;20036;-73
2022/11/03 02:39:57;;;;;;;15.10;9.68;;;14.30;99.90;;;;;;5050935;28;20495;-73
2022/11/03 02:42:24;;;;;;;18.10;9.77;;;14.30;99.90;;;;;;5050984;28;20108;-73
2022/11/03 02:44:52;;;;;;;17.58;10.70;;;14.30;99.90;;;;;;5050816;28;20033;-74
2022/11/03 02:47:19;;;;;;;20.85;10.95;;;14.30;99.90;;;;;;5033003;28;20029;-73
2022/11/03 02:49:47;;;;;;;24.02;11.60;;;14.40;99.90;;;;;;5053970;28;20441;-73
2022/11/03 02:52:47;;;;;;;22.98;11.73;;;14.40;99.90;;;;;;5054758;28;20025;-74
2022/11/03 02:55:34;;;;;;;24.10;11.25;;;14.40;99.90;;;;;;5054759;28;20160;-73
2022/11/03 02:58:03;;;;;;;22.27;12.52;;;14.40;99.90;;;;;;5054783;28;20107;-73
2022/11/03 03:00:31;;;;;;;20.80;12.05;;;14.40;99.90;;;;;;5054690;28;20027;-73
2022/11/03 03:03:13;;;;;;;22.38;12.75;;;14.40;99.90;;;;;;5054233;28;20040;-74
2022/11/03 03:05:41;;;;;;;21.75;12.38;;;14.40;99.90;;;;;;5059430;28;20044;-74
2022/11/03 03:08:10;;;;;;;24.75;13.60;;;14.30;99.90;;;;;;5041037;28;20393;-73
2022/11/03 03:10:43;;;;;;;26.80;13.95;;;14.30;99.90;;;;;;5036550;28;20044;-74
2022/11/03 03:13:12;;;;;;;25.42;13.27;;;14.30;99.90;;;;;;5036348;28;20021;-73
2022/11/03 03:15:46;;;;;;;19.48;12.27;;;14.30;99.90;;;;;;5036523;28;20044;-73
2022/11/03 03:18:15;;;;;;;20.30;13.00;;;14.30;99.90;;;;;;5054120;28;20032;-73
2022/11/03 03:20:52;;;;;;;22.95;13.05;;;14.30;99.90;;;;;;5036129;28;20052;-73
2022/11/03 03:23:26;;;;;;;20.80;13.10;;;14.30;99.90;;;;;;5053846;28;20025;-73
2022/11/03 03:25:55;;;;;;;24.38;13.60;;;14.30;99.90;;;;;;5053949;28;20033;-74
2022/11/03 03:29:02;;;;;;;21.25;12.57;;;14.30;99.90;;;;;;5062060;28;20533;-73
2022/11/03 03:31:31;;;;;;;21.17;11.68;;;14.30;99.90;;;;;;5094081;28;20538;-73
2022/11/03 03:33:58;;;;;;;22.42;13.52;;;14.30;99.90;;;;;;5094142;28;20016;-73
2022/11/03 03:36:26;;;;;;;20.73;12.43;;;14.20;99.90;;;;;;5078614;28;20546;-74
2022/11/03 03:38:57;;;;;;;23.90;13.63;;;14.20;99.90;;;;;;5073823;28;20016;-73
2022/11/03 03:41:25;;;;;;;24.52;13.18;;;14.20;99.90;;;;;;5073749;28;20490;-73
2022/11/03 03:43:54;;;;;;;24.27;13.05;;;14.20;99.90;;;;;;5073801;28;20082;-73
2022/11/03 03:46:22;;;;;;;23.98;13.55;;;14.20;99.90;;;;;;5055970;28;20021;-73
2022/11/03 03:48:48;;;;;;;23.20;13.73;;;14.20;99.90;;;;;;5073694;28;20441;-75
2022/11/03 03:51:18;;;;;;;26.75;13.38;;;14.20;99.90;;;;;;5073389;28;20021;-74
2022/11/03 03:53:50;;;;;;;25.77;13.80;;;14.20;99.90;;;;;;5073483;28;20028;-73
2022/11/03 03:56:47;;;;;;;18.20;12.30;;;14.30;99.90;;;;;;5073500;28;20013;-73
2022/11/03 03:59:13;;;;;;;22.80;13.40;;;14.30;99.90;;;;;;5059325;28;20055;-75
2022/11/03 04:01:38;;;;;;;25.15;13.45;;;14.20;99.90;;;;;;5055501;28;20363;-75
2022/11/03 04:04:04;;;;;;;21.90;13.73;;;14.20;99.90;;;;;;5055331;28;20017;-75
2022/11/03 04:06:30;;;;;;;21.73;13.32;;;14.20;99.90;;;;;;5073283;28;20043;-75
2022/11/03 04:08:55;;;;;;;24.63;13.23;;;14.20;99.90;;;;;;5055375;28;20488;-75
2022/11/03 04:22:17;;;;;;;23.85;12.73;;;14.20;99.90;;;;;;5073080;28;20543;-75
2022/11/03 04:24:48;;;;;;;18.52;12.27;;;14.20;99.90;;;;;;5072931;28;20028;-75
2022/11/03 04:27:33;;;;;;;22.42;12.55;;;14.10;99.90;;;;;;5072855;28;20028;-75
2022/11/03 04:30:20;;;;;;;24.27;12.63;;;14.10;99.90;;;;;;5072622;28;20119;-76
2022/11/03 04:32:48;;;;;;;20.20;11.77;;;14.10;99.90;;;;;;5072203;28;20027;-75
2022/11/03 04:35:22;;;;;;;26.58;13.10;;;14.10;99.90;;;;;;5072940;28;20021;-75
2022/11/03 04:37:56;;;;;;;19.40;12.25;;;14.10;99.90;;;;;;5072590;28;20413;-75
2022/11/03 04:40:22;;;;;;;23.50;12.23;;;14.10;99.90;;;;;;5072458;28;20050;-75
2022/11/03 04:42:47;;;;;;;21.25;12.20;;;14.00;99.90;;;;;;5072496;28;20458;-75
2022/11/03 04:45:23;;;;;;;19.52;11.93;;;14.00;99.90;;;;;;5072617;28;20045;-75
2022/11/03 04:47:49;;;;;;;22.70;12.77;;;14.00;99.90;;;;;;5072462;28;20436;-73
2022/11/03 04:50:18;;;;;;;26.63;12.68;;;14.00;99.90;;;;;;5072351;28;20039;-73
2022/11/03 04:52:45;;;;;;;20.75;12.25;;;14.00;99.90;;;;;;5072232;28;20025;-73
2022/11/03 04:55:15;;;;;;;20.33;11.98;;;14.00;99.90;;;;;;5054376;28;20123;-73
2022/11/03 04:57:42;;;;;;;23.15;12.93;;;14.00;99.90;;;;;;5054090;28;20486;-73
2022/11/03 05:00:17;;;;;;;23.95;13.38;;;14.00;99.90;;;;;;5072381;28;20065;-73
2022/11/03 05:02:44;;;;;;;18.50;12.30;;;13.90;99.90;;;;;;5071978;28;20032;-73
2022/11/03 05:05:16;;;;;;;25.38;13.68;;;13.90;99.90;;;;;;5071989;28;20024;-73
2022/11/03 05:07:42;;;;;;;21.00;12.55;;;13.90;99.90;;;;;;5072139;28;20398;-75
2022/11/03 05:10:14;;;;;;;23.70;14.23;;;13.80;99.90;;;;;;5053823;28;20032;-75
2022/11/03 05:12:40;;;;;;;23.98;12.98;;;13.80;99.90;;;;;;5071137;28;20077;-75
2022/11/03 05:15:21;;;;;;;22.95;12.95;;;13.80;99.90;;;;;;5053859;28;20475;-75
2022/11/03 05:17:47;;;;;;;21.70;12.55;;;13.70;99.90;;;;;;5071968;28;20025;-75
2022/11/03 05:20:30;;;;;;;28.20;13.02;;;13.70;99.90;;;;;;5071976;28;20029;-75
2022/11/03 05:22:56;;;;;;;26.20;13.13;;;13.70;99.90;;;;;;5053829;28;20040;-76
2022/11/03 05:25:43;;;;;;;18.48;12.88;;;13.70;99.90;;;;;;5071790;28;20016;-76
2022/11/03 05:28:22;;;;;;;22.75;12.85;;;13.70;99.90;;;;;;5042817;28;20544;-76
2022/11/03 05:30:49;;;;;;;20.35;12.65;;;13.70;99.90;;;;;;5092002;28;20401;-75
2022/11/03 05:33:24;;;;;;;21.92;12.95;;;13.70;99.90;;;;;;5079134;28;20036;-75
2022/11/03 05:35:50;;;;;;;22.70;12.98;;;13.70;99.90;;;;;;5060159;28;20390;-76
2022/11/03 05:38:19;;;;;;;22.80;13.25;;;13.70;99.90;;;;;;5071095;28;20032;-76
2022/11/03 05:40:53;;;;;;;25.63;13.73;;;13.70;99.90;;;;;;5076082;28;20027;-75
2022/11/03 05:43:20;;;;;;;25.10;13.00;;;13.70;99.90;;;;;;5062771;28;20078;-76
2022/11/03 05:45:50;;;;;;;23.40;12.73;;;13.80;99.90;;;;;;5079542;28;20036;-76
2022/11/03 05:48:25;;;;;;;26.90;13.18;;;13.80;99.90;;;;;;5079630;28;20478;-75
2022/11/03 05:50:51;;;;;;;28.30;13.23;;;13.80;99.90;;;;;;5061252;28;20020;-75
2022/11/03 05:53:30;;;;;;;23.20;12.45;;;13.80;99.90;;;;;;5078498;28;20082;-75
2022/11/03 05:56:02;;;;;;;24.48;12.75;;;13.80;99.90;;;;;;5077320;28;20073;-75
2022/11/03 05:58:35;;;;;;;20.17;12.27;;;13.80;99.90;;;;;;5076350;28;20070;-75
2022/11/03 06:01:10;;;;;;;22.13;13.10;;;13.90;99.90;;;;;;5081155;28;20058;-75
2022/11/03 06:03:36;;;;;;;24.38;13.52;;;13.90;99.90;;;;;;5055344;28;20029;-75
2022/11/03 06:06:10;;;;;;;27.92;13.70;;;13.90;99.90;;;;;;5052985;28;20051;-75
2022/11/03 06:08:36;;;;;;;24.42;12.95;;;13.90;99.90;;;;;;5053307;28;20052;-75
2022/11/03 06:11:03;;;;;;;24.25;13.10;;;14.00;99.90;;;;;;5071078;28;20064;-75
2022/11/03 06:13:36;;;;;;;24.70;13.18;;;14.00;99.90;;;;;;5053214;28;20031;-75
2022/11/03 06:16:19;;;;;;;23.85;13.68;;;14.00;99.90;;;;;;5070986;28;20021;-75
2022/11/03 06:18:45;;;;;;;23.45;12.43;;;14.00;99.90;;;;;;5051866;28;20035;-76
2022/11/03 06:21:18;;;;;;;30.77;14.75;;;14.00;99.90;;;;;;5069616;28;20417;-75
2022/11/03 06:23:44;;;;;;;27.25;15.27;;;14.00;99.90;;;;;;5073353;28;20513;-75
2022/11/03 06:26:24;;;;;;;25.45;13.98;;;14.00;99.90;;;;;;5055691;28;20024;-75
2022/11/03 06:28:50;;;;;;;28.52;14.98;;;14.10;99.90;;;;;;5055815;28;20033;-75
2022/11/03 06:31:37;;;;;;;31.35;13.77;;;14.10;99.90;;;;;;5073616;28;20196;-73
2022/11/03 06:34:07;;;;;;;28.08;15.00;;;14.10;99.90;;;;;;5056761;28;20020;-75
2022/11/03 06:36:36;;;;;;;26.38;13.98;;;14.10;99.90;;;;;;5072942;28;20024;-73
2022/11/03 06:39:22;;;;;;;26.48;14.35;;;14.10;99.90;;;;;;5073058;28;20025;-75
2022/11/03 06:41:48;;;;;;;27.30;15.07;;;14.20;99.90;;;;;;5072954;28;20025;-76
2022/11/03 06:44:23;;;;;;;27.00;14.38;;;14.20;99.90;;;;;;5073563;28;20107;-75
2022/11/03 06:46:50;;;;;;;26.80;14.90;;;14.20;99.90;;;;;;5055907;28;20337;-75
2022/11/03 06:49:31;;;;;;;28.38;14.07;;;14.20;99.90;;;;;;5074042;28;20363;-75
2022/11/03 06:52:27;;;;;;;30.15;14.57;;;14.30;99.90;;;;;;5056731;28;20096;-75
2022/11/03 06:54:58;;;;;;;25.58;14.80;;;14.30;99.90;;;;;;5056685;28;20444;-75
2022/11/03 06:57:24;;;;;;;27.88;15.85;;;14.30;99.90;;;;;;5074468;28;20512;-75
2022/11/03 06:59:52;;;;;;;22.50;14.48;;;14.40;99.90;;;;;;5074692;28;20021;-75
2022/11/03 07:02:47;;;;;;;30.20;14.35;;;14.40;99.90;;;;;;5074545;28;20020;-75
2022/11/03 07:05:24;;;;;;;25.48;13.90;;;14.40;99.90;;;;;;5056201;28;20060;-75
2022/11/03 07:07:59;;;;;;;31.70;14.98;;;14.50;99.90;;;;;;5056493;28;20056;-75
2022/11/03 07:10:30;;;;;;;28.17;15.02;;;14.50;99.90;;;;;;5071138;28;20159;-75
2022/11/03 07:13:00;;;;;;;25.58;15.00;;;14.50;99.90;;;;;;5074101;28;20024;-75
2022/11/03 07:15:36;;;;;;;24.70;14.05;;;14.50;99.90;;;;;;5074560;28;20028;-75
2022/11/03 07:18:13;;;;;;;35.08;16.63;;;14.50;99.90;;;;;;5075590;28;20108;-75
2022/11/03 07:20:39;;;;;;;29.33;14.85;;;14.60;99.90;;;;;;5057771;28;20082;-75
2022/11/03 07:23:09;;;;;;;29.23;15.73;;;14.60;99.90;;;;;;5075343;28;20028;-75
2022/11/03 07:25:34;;;;;;;26.98;14.98;;;14.60;99.90;;;;;;5075126;28;20106;-75
2022/11/03 07:28:01;;;;;;;23.58;14.95;;;14.70;99.90;;;;;;5075379;28;20471;-73
2022/11/03 07:30:33;;;;;;;29.67;14.85;;;14.80;99.90;;;;;;5075228;28;20394;-72
2022/11/03 07:33:26;;;;;;;27.70;15.68;;;14.80;99.90;;;;;;5075136;28;20027;-73
2022/11/03 07:35:53;;;;;;;28.08;15.18;;;14.80;99.90;;;;;;5070338;28;20044;-75
2022/11/03 07:38:21;;;;;;;29.65;15.25;;;14.80;99.90;;;;;;5075239;28;20571;-75
2022/11/03 07:40:49;;;;;;;27.27;15.55;;;14.90;99.90;;;;;;5075129;28;20025;-75
2022/11/03 07:43:18;;;;;;;30.17;14.60;;;14.90;99.90;;;;;;5075133;28;20024;-75
2022/11/03 07:45:57;;;;;;;26.67;14.48;;;14.90;99.90;;;;;;5057041;28;20025;-75
2022/11/03 07:48:25;;;;;;;26.20;14.75;;;14.90;99.90;;;;;;5074979;28;20024;-75
2022/11/03 07:50:53;;;;;;;29.02;14.20;;;14.90;99.90;;;;;;5074649;28;20028;-73
2022/11/03 07:53:34;;;;;;;27.73;14.73;;;15.00;99.90;;;;;;5056500;28;20027;-75
2022/11/03 07:56:01;;;;;;;30.58;14.57;;;15.00;99.90;;;;;;5074526;28;20082;-75
2022/11/03 07:58:38;;;;;;;29.80;14.50;;;15.10;99.90;;;;;;5074742;28;20021;-75
2022/11/03 08:01:55;;;;;;;27.42;15.38;;;15.10;99.90;;;;;;5056250;28;20025;-75
2022/11/03 08:04:30;;;;;;;29.65;14.75;;;15.10;99.90;;;;;;4976691;28;20401;-75
2022/11/03 08:06:56;;;;;;;31.40;14.32;;;15.20;99.90;;;;;;5040316;28;20041;-75
2022/11/03 08:09:22;;;;;;;26.95;14.15;;;15.20;99.90;;;;;;5054224;28;20074;-75
2022/11/03 08:11:47;;;;;;;23.17;13.93;;;15.20;99.90;;;;;;5054463;28;20706;-75
2022/11/03 08:14:13;;;;;;;25.88;14.57;;;15.30;99.90;;;;;;5054590;28;20104;-75
2022/11/03 08:16:39;;;;;;;25.15;14.43;;;15.30;99.90;;;;;;5061090;28;20020;-75
2022/11/03 08:19:07;;;;;;;30.45;14.20;;;15.30;99.90;;;;;;5074547;28;20079;-75
2022/11/03 08:21:33;;;;;;;29.90;15.70;;;15.40;99.90;;;;;;5074230;28;20111;-75
2022/11/03 08:23:59;;;;;;;29.05;15.35;;;15.40;99.90;;;;;;5074174;28;20107;-75
2022/11/03 08:26:25;;;;;;;28.90;15.50;;;15.40;99.90;;;;;;5074036;28;20025;-75
2022/11/03 08:28:51;;;;;;;27.90;15.35;;;15.50;99.90;;;;;;5056023;28;20058;-73
2022/11/03 08:31:17;;;;;;;27.17;15.48;;;15.50;99.90;;;;;;5073223;28;20063;-73
2022/11/03 08:33:42;;;;;;;28.70;16.02;;;15.50;99.90;;;;;;5072768;28;20016;-73
2022/11/03 08:36:08;;;;;;;26.40;15.25;;;15.50;99.90;;;;;;5054931;28;20027;-77
2022/11/03 08:38:35;;;;;;;28.15;14.70;;;15.60;99.90;;;;;;5054799;28;20025;-76
2022/11/03 08:41:01;;;;;;;27.95;14.45;;;15.60;99.90;;;;;;5071081;28;20056;-77
2022/11/03 08:43:27;;;;;;;22.45;14.52;;;15.60;99.90;;;;;;5052585;28;20498;-77
2022/11/03 08:45:53;;;;;;;28.83;14.02;;;15.60;99.90;;;;;;5070649;28;20033;-77
2022/11/03 08:48:26;;;;;;;30.30;16.65;;;15.60;99.90;;;;;;5052851;28;20108;-77
2022/11/03 08:50:55;;;;;;;47.60;23.83;;;15.60;99.90;;;;;;5070439;28;20029;-77
2022/11/03 08:53:23;;;;;;;52.85;25.75;;;15.60;99.90;;;;;;5070428;28;20024;-77
2022/11/03 08:55:48;;;;;;;50.10;26.70;;;15.60;99.90;;;;;;5053695;28;20111;-77
2022/11/03 08:58:14;;;;;;;61.30;27.40;;;15.60;99.90;;;;;;5054298;28;20505;-77
2022/11/03 09:00:40;;;;;;;51.33;27.63;;;15.50;99.90;;;;;;5051417;28;20025;-77
2022/11/03 09:03:05;;;;;;;52.80;27.35;;;15.50;99.90;;;;;;5072049;28;20082;-77
2022/11/03 09:05:31;;;;;;;57.83;27.63;;;15.60;99.90;;;;;;5072133;28;20048;-79
2022/11/03 09:07:58;;;;;;;54.03;27.20;;;15.60;99.90;;;;;;5054401;28;20025;-79
2022/11/03 09:10:24;;;;;;;58.28;27.15;;;15.60;99.90;;;;;;5072012;28;20029;-79
2022/11/03 09:12:50;;;;;;;60.35;27.20;;;15.60;99.90;;;;;;5072125;28;20028;-79
2022/11/03 09:15:16;;;;;;;56.65;28.02;;;15.60;99.90;;;;;;5054178;28;20116;-79
2022/11/03 09:17:41;;;;;;;54.85;26.92;;;15.60;99.90;;;;;;5072003;28;20106;-79
2022/11/03 09:20:08;;;;;;;63.45;29.65;;;15.60;99.90;;;;;;5072067;28;20031;-76
2022/11/03 09:22:34;;;;;;;58.22;27.77;;;15.60;99.90;;;;;;5054343;28;20035;-76
2022/11/03 09:25:00;;;;;;;60.80;26.75;;;15.70;99.90;;;;;;5071823;28;20393;-76
2022/11/03 09:27:26;;;;;;;52.90;25.90;;;15.80;99.90;;;;;;5054193;28;20024;-76
2022/11/03 09:29:54;;;;;;;48.15;25.50;;;15.90;99.90;;;;;;5071888;28;20496;-76
2022/11/03 09:32:20;;;;;;;40.30;22.85;;;16.00;99.90;;;;;;5071798;28;20103;-79
2022/11/03 09:34:45;;;;;;;44.67;22.48;;;16.10;99.90;;;;;;5071720;28;20099;-79
2022/11/03 09:37:11;;;;;;;42.55;22.27;;;16.20;99.90;;;;;;5071887;28;20436;-79
2022/11/03 09:39:37;;;;;;;46.55;23.27;;;16.30;99.90;;;;;;5071769;28;20040;-79
2022/11/03 09:42:04;;;;;;;47.38;23.38;;;16.30;99.90;;;;;;5074323;28;20027;-79
2022/11/03 09:44:35;;;;;;;51.30;24.10;;;16.30;99.90;;;;;;5092027;28;20012;-79
2022/11/03 09:47:01;;;;;;;53.70;25.98;;;16.50;99.90;;;;;;5073733;28;20377;-79
2022/11/03 09:49:30;;;;;;;46.38;25.00;;;16.60;99.90;;;;;;5073642;28;20028;-76
2022/11/03 09:51:56;;;;;;;65.80;30.60;;;16.60;99.90;;;;;;5074253;28;20024;-78
2022/11/03 09:54:23;;;;;;;58.97;29.63;;;16.80;99.90;;;;;;5092859;28;20024;-79
2022/11/03 09:56:49;;;;;;;56.25;24.15;;;16.80;99.90;;;;;;5092440;28;20027;-79
2022/11/03 09:59:22;;;;;;;44.00;23.67;;;16.90;99.90;;;;;;5074803;28;20020;-78
2022/11/03 10:01:52;;;;;;;52.40;24.75;;;16.90;99.90;;;;;;5092786;28;20031;-76
2022/11/03 10:04:28;;;;;;;48.63;23.17;;;16.90;99.90;;;;;;5092909;28;20028;-76
2022/11/03 10:06:57;;;;;;;52.55;23.17;;;16.90;99.90;;;;;;5092490;28;20036;-79
2022/11/03 10:09:24;;;;;;;45.97;22.20;;;17.00;99.90;;;;;;5092141;28;20028;-78
2022/11/03 10:11:51;;;;;;;49.92;24.27;;;17.00;99.90;;;;;;5091624;28;20036;-76
2022/11/03 10:14:18;;;;;;;48.55;25.00;;;17.00;99.90;;;;;;5091767;28;20052;-76
2022/11/03 10:16:55;;;;;;;55.38;24.75;;;17.00;99.90;;;;;;5091745;28;20106;-76
2022/11/03 10:19:25;;;;;;;52.72;24.55;;;17.10;99.90;;;;;;5091794;28;20035;-78
2022/11/03 10:21:51;;;;;;;47.97;23.30;;;17.10;99.90;;;;;;5091699;28;20036;-76
2022/11/03 10:24:17;;;;;;;44.78;23.40;;;17.10;99.90;;;;;;5073708;28;20095;-76
2022/11/03 10:26:43;;;;;;;47.78;23.45;;;17.10;99.90;;;;;;5091628;28;20036;-76
2022/11/03 10:29:18;;;;;;;49.95;24.00;;;17.20;99.90;;;;;;5091731;28;20025;-76
2022/11/03 10:31:49;;;;;;;47.00;23.30;;;17.20;99.90;;;;;;5091396;28;20032;-76
2022/11/03 10:34:28;;;;;;;57.38;25.30;;;17.20;99.90;;;;;;5091534;28;20101;-78
2022/11/03 10:37:22;;;;;;;54.92;26.80;;;17.30;99.90;;;;;;5071866;28;20026;-79
2022/11/03 10:39:49;;;;;;;60.15;28.30;;;17.30;99.90;;;;;;5071267;28;20027;-78
2022/11/03 10:42:29;;;;;;;58.47;28.70;;;17.20;99.90;;;;;;5053100;28;20032;-79
2022/11/03 10:45:16;;;;;;;63.40;27.80;;;17.20;99.90;;;;;;5071149;28;20036;-76
2022/11/03 10:47:42;;;;;;;63.13;27.38;;;17.20;99.90;;;;;;5053129;28;20120;-79
2022/11/03 10:50:26;;;;;;;67.25;29.10;;;17.20;99.90;;;;;;5069867;28;20454;-76
2022/11/03 10:52:52;;;;;;;63.17;29.25;;;17.30;99.90;;;;;;5068696;28;20486;-76
2022/11/03 10:55:19;;;;;;;63.72;29.08;;;17.30;99.90;;;;;;5050976;28;20064;-75
2022/11/03 10:57:46;;;;;;;73.60;30.10;;;17.40;99.90;;;;;;5069367;28;20052;-78
2022/11/03 11:00:18;;;;;;;59.67;30.02;;;17.40;99.90;;;;;;5069479;28;20035;-78
2022/11/03 11:02:45;;;;;;;68.38;29.27;;;17.30;99.90;;;;;;5069405;28;20032;-78
2022/11/03 11:05:18;;;;;;;68.20;30.13;;;17.40;99.90;;;;;;5051953;28;20043;-78
2022/11/03 11:07:44;;;;;;;70.40;30.23;;;17.40;99.90;;;;;;5071058;28;20036;-76
2022/11/03 11:10:26;;;;;;;63.13;29.08;;;17.40;99.90;;;;;;5055098;28;20033;-76
2022/11/03 11:13:22;;;;;;;69.45;32.10;;;17.40;99.90;;;;;;5074402;28;20028;-79
2022/11/03 11:15:49;;;;;;;64.75;32.47;;;17.40;99.90;;;;;;5074678;28;20385;-76
2022/11/03 11:18:41;;;;;;;66.60;31.35;;;17.40;99.90;;;;;;5056433;28;20264;-79
2022/11/03 11:21:18;;;;;;;67.90;33.72;;;17.40;99.90;;;;;;5043347;28;20028;-78
2022/11/03 11:23:45;;;;;;;68.32;31.08;;;17.40;99.90;;;;;;5074324;28;20048;-76
2022/11/03 11:26:14;;;;;;;65.75;29.08;;;17.40;99.90;;;;;;5074303;28;20016;-76
2022/11/03 11:29:03;;;;;;;67.57;29.42;;;17.50;99.90;;;;;;5074314;28;20474;-78
2022/11/03 11:31:31;;;;;;;70.05;32.33;;;17.50;99.90;;;;;;5073341;28;20032;-76
2022/11/03 11:34:15;;;;;;;66.10;30.67;;;17.50;99.90;;;;;;5074283;28;20035;-78
2022/11/03 11:36:45;;;;;;;67.25;30.15;;;17.60;99.90;;;;;;5074140;28;20031;-78
2022/11/03 11:39:23;;;;;;;66.88;30.23;;;17.50;99.90;;;;;;5055990;28;20042;-78
2022/11/03 11:42:18;;;;;;;71.72;31.63;;;17.60;99.90;;;;;;5073763;28;20538;-78
2022/11/03 11:44:52;;;;;;;69.45;31.55;;;17.60;99.90;;;;;;5074028;28;20485;-76
2022/11/03 11:47:30;;;;;;;67.97;30.75;;;17.60;99.90;;;;;;5074173;28;20048;-76
2022/11/03 11:50:13;;;;;;;63.45;29.13;;;17.70;99.90;;;;;;5073083;28;20501;-78
2022/11/03 11:53:03;;;;;;;69.25;30.45;;;17.70;99.90;;;;;;5073821;28;20028;-76
2022/11/03 11:56:09;;;;;;;61.97;30.55;;;17.80;99.90;;;;;;5055816;28;20180;-76
2022/11/03 11:58:38;;;;;;;63.58;29.73;;;17.70;99.90;;;;;;5069573;28;20032;-76
2022/11/03 12:01:25;;;;;;;66.18;30.33;;;17.70;99.90;;;;;;5055411;28;20033;-76
2022/11/03 12:03:54;;;;;;;59.03;29.05;;;17.70;99.90;;;;;;5073615;28;20075;-76
2022/11/03 12:06:37;;;;;;;60.08;28.98;;;17.70;99.90;;;;;;5073155;28;20076;-76
2022/11/03 12:09:14;;;;;;;65.35;30.73;;;17.70;99.90;;;;;;5073295;28;20025;-78
2022/11/03 12:11:52;;;;;;;62.50;31.63;;;17.80;99.90;;;;;;5073228;28;20029;-76
2022/11/03 12:14:37;;;;;;;62.97;31.30;;;17.80;99.90;;;;;;5073320;28;20017;-78
2022/11/03 12:17:15;;;;;;;60.42;31.20;;;17.90;99.90;;;;;;5073380;28;20551;-78
2022/11/03 12:19:43;;;;;;;61.72;31.40;;;17.90;99.90;;;;;;5054961;28;20028;-76
2022/11/03 12:22:29;;;;;;;65.05;29.25;;;17.80;99.90;;;;;;5072954;28;20024;-76
2022/11/03 12:24:56;;;;;;;54.55;27.05;;;17.80;99.90;;;;;;5058971;28;20082;-76
2022/11/03 12:27:25;;;;;;;64.50;29.73;;;17.80;99.90;;;;;;5073095;28;20432;-78
2022/11/03 12:29:52;;;;;;;64.95;31.27;;;17.80;99.90;;;;;;5072899;28;20025;-76
2022/11/03 12:32:18;;;;;;;66.55;30.65;;;17.80;99.90;;;;;;5072865;28;20454;-76
2022/11/03 12:34:44;;;;;;;67.50;29.63;;;17.80;99.90;;;;;;5074258;28;20466;-76
2022/11/03 12:37:10;;;;;;;61.80;29.38;;;17.80;99.90;;;;;;5093162;28;20017;-76
2022/11/03 12:39:36;;;;;;;58.88;28.17;;;17.80;99.90;;;;;;5092975;28;20431;-76
2022/11/03 12:42:03;;;;;;;56.50;29.50;;;17.70;99.90;;;;;;5074818;28;20024;-76
2022/11/03 12:44:28;;;;;;;56.65;26.88;;;17.70;99.90;;;;;;5093007;28;20021;-76
2022/11/03 12:46:54;;;;;;;53.65;27.63;;;17.70;99.90;;;;;;5074857;28;20024;-76
2022/11/03 12:49:20;;;;;;;50.72;25.73;;;17.70;99.90;;;;;;5074523;28;20446;-76
2022/11/03 12:51:45;;;;;;;56.75;26.70;;;17.70;99.90;;;;;;5092698;28;20035;-76
2022/11/03 12:54:11;;;;;;;47.90;25.50;;;17.70;99.90;;;;;;5074430;28;20036;-76
2022/11/03 12:56:37;;;;;;;44.30;23.48;;;17.70;99.90;;;;;;5072346;28;20028;-76
2022/11/03 12:59:03;;;;;;;45.50;23.38;;;17.70;99.90;;;;;;5072498;28;20024;-76
2022/11/03 13:01:29;;;;;;;37.72;21.48;;;17.70;99.90;;;;;;5072218;28;20174;-76
2022/11/03 13:03:54;;;;;;;44.10;23.25;;;17.70;99.90;;;;;;5054348;28;20442;-76
2022/11/03 13:06:20;;;;;;;42.40;20.85;;;17.70;99.90;;;;;;5057656;28;20041;-76
2022/11/03 13:08:46;;;;;;;39.58;21.60;;;17.60;99.90;;;;;;5052239;28;20482;-76